Time;durP1;ratioP1;P1;durP2;ratioP2;P2;SDS_P1;SDS_P2;PMS_P1;PMS_P2;Temp;Humidity;BMP_temperature;BMP_pressure;BME280_temperature;BME280_humidity;BME280_pressure;Samples;Min_cycle;Max_cycle;Signal;HPM_P1;HPM_P2
2021/06/25 00:02:07;;;;;;;2.38;1.20;;;;;;;21.42;41.19;102007.28;4862683;29;20030;-90
2021/06/25 00:04:33;;;;;;;2.40;1.50;;;;;;;21.42;41.21;102009.88;4862933;29;20065;-92
2021/06/25 00:06:59;;;;;;;1.73;1.00;;;;;;;21.41;41.40;102009.03;4863390;29;20053;-91
2021/06/25 00:09:24;;;;;;;1.92;1.30;;;;;;;21.42;41.46;102005.50;4846227;29;20458;-93
2021/06/25 00:11:49;;;;;;;2.33;1.27;;;;;;;21.42;41.37;102009.88;4862439;29;20033;-94
2021/06/25 00:14:21;;;;;;;2.50;1.25;;;;;;;21.40;41.56;101998.53;4847332;29;20129;-94
2021/06/25 00:16:48;;;;;;;2.08;1.20;;;;;;;21.40;41.55;101996.75;4862007;29;20025;-91
2021/06/25 00:19:13;;;;;;;2.30;1.40;;;;;;;21.39;41.75;101995.03;4846792;29;20085;-90
2021/06/25 00:21:39;;;;;;;1.42;1.10;;;;;;;21.39;41.63;101989.81;4846673;29;20041;-93
2021/06/25 00:24:05;;;;;;;2.45;1.45;;;;;;;21.41;41.63;102002.91;4861917;29;20072;-90
2021/06/25 00:26:30;;;;;;;1.65;1.20;;;;;;;21.40;41.62;101995.91;4862556;29;20081;-93
2021/06/25 00:28:56;;;;;;;4.10;1.40;;;;;;;21.41;41.62;101995.03;4865969;29;20036;-89
2021/06/25 00:31:21;;;;;;;2.47;1.40;;;;;;;21.38;41.60;101990.66;4862098;29;20390;-95
2021/06/25 00:33:46;;;;;;;2.63;1.60;;;;;;;21.39;41.77;101987.19;4845751;29;20033;-91
2021/06/25 00:36:12;;;;;;;3.60;1.45;;;;;;;21.39;41.91;101986.31;4846163;29;20193;-92
2021/06/25 00:38:37;;;;;;;2.75;1.40;;;;;;;21.39;41.93;101986.31;4862252;29;20508;-92
2021/06/25 00:41:02;;;;;;;2.40;1.52;;;;;;;21.38;41.58;101977.56;4846298;29;20078;-92
2021/06/25 00:43:28;;;;;;;2.03;1.40;;;;;;;21.36;41.94;101969.75;4846204;29;20036;-92
2021/06/25 00:45:53;;;;;;;3.03;1.20;;;;;;;21.38;41.94;101969.72;4831662;29;20033;-90
2021/06/25 00:48:19;;;;;;;2.63;1.30;;;;;;;21.39;41.80;101962.75;4863064;29;20034;-93
2021/06/25 00:50:44;;;;;;;2.45;1.60;;;;;;;21.37;41.97;101963.63;4861576;29;20500;-91
2021/06/25 00:53:10;;;;;;;2.08;1.48;;;;;;;21.37;42.03;101950.53;4861576;29;20125;-93
2021/06/25 00:55:44;;;;;;;2.53;1.52;;;;;;;21.35;41.88;101944.44;4845774;29;20043;-92
2021/06/25 00:58:17;;;;;;;3.97;1.38;;;;;;;21.39;41.99;101947.03;4861360;29;20034;-93
2021/06/25 01:00:44;;;;;;;2.63;1.35;;;;;;;21.40;41.70;101954.00;4846901;29;20128;-92
2021/06/25 01:03:11;;;;;;;2.08;1.40;;;;;;;21.39;42.00;101947.91;4861909;29;20374;-90
2021/06/25 01:05:37;;;;;;;1.88;1.38;;;;;;;21.37;42.06;101950.53;4861218;29;20034;-92
2021/06/25 01:08:05;;;;;;;2.20;1.25;;;;;;;21.41;41.95;101945.28;4860983;29;20098;-90
2021/06/25 01:10:30;;;;;;;2.47;1.30;;;;;;;21.39;42.33;101942.66;4861528;29;20037;-91
2021/06/25 01:12:56;;;;;;;2.03;1.30;;;;;;;21.39;42.03;101940.06;4861050;29;20064;-91
2021/06/25 01:15:21;;;;;;;1.67;1.30;;;;;;;21.40;42.14;101946.16;4830605;29;20124;-89
2021/06/25 01:17:47;;;;;;;1.60;1.10;;;;;;;21.40;42.10;101933.91;4861472;29;20477;-91
2021/06/25 01:20:14;;;;;;;1.77;1.20;;;;;;;21.41;42.05;101932.19;4861004;29;20033;-92
2021/06/25 01:22:41;;;;;;;2.00;1.70;;;;;;;21.40;42.24;101925.19;4862236;29;20038;-91
2021/06/25 01:25:09;;;;;;;2.20;1.48;;;;;;;21.38;42.26;101925.22;4864046;29;20041;-92
2021/06/25 01:27:37;;;;;;;3.38;1.77;;;;;;;21.38;42.08;101925.22;4875909;29;20033;-88
2021/06/25 01:30:06;;;;;;;1.90;1.70;;;;;;;21.37;42.17;101918.25;4878695;29;20063;-89
2021/06/25 01:32:31;;;;;;;2.47;1.80;;;;;;;21.37;42.62;101916.50;4863079;29;20485;-92
2021/06/25 01:35:00;;;;;;;2.55;1.88;;;;;;;21.37;42.51;101919.09;4862408;29;20090;-91
2021/06/25 01:37:26;;;;;;;1.95;1.50;;;;;;;21.39;42.73;101919.09;4861411;29;20037;-94
2021/06/25 01:39:51;;;;;;;3.10;1.88;;;;;;;21.37;42.48;101907.78;4845659;29;20042;-91
2021/06/25 01:42:17;;;;;;;2.15;1.77;;;;;;;21.39;42.51;101910.38;4846075;29;20025;-93
2021/06/25 01:44:44;;;;;;;3.05;1.50;;;;;;;21.39;42.38;101908.63;4846090;29;20056;-91
2021/06/25 01:47:10;;;;;;;2.45;1.73;;;;;;;21.41;42.55;101916.47;4862065;29;20041;-92
2021/06/25 01:49:37;;;;;;;2.67;1.80;;;;;;;21.40;42.57;101914.72;4845241;29;20029;-94
2021/06/25 01:52:03;;;;;;;2.80;2.05;;;;;;;21.41;42.64;101916.47;4830347;29;20057;-89
2021/06/25 01:54:28;;;;;;;2.90;1.75;;;;;;;21.40;42.70;101918.22;4860517;29;20512;-92
2021/06/25 01:56:53;;;;;;;3.47;2.10;;;;;;;21.39;42.85;101911.25;4861011;29;20037;-93
2021/06/25 01:59:21;;;;;;;3.15;2.20;;;;;;;21.39;42.75;101920.88;4860583;29;20059;-92
2021/06/25 02:01:46;;;;;;;2.90;2.28;;;;;;;21.36;42.56;101909.53;4860706;29;20500;-91
2021/06/25 02:04:12;;;;;;;2.53;1.98;;;;;;;21.36;42.78;101913.88;4862123;29;20030;-94
2021/06/25 02:06:37;;;;;;;2.45;1.90;;;;;;;21.38;42.52;101917.34;4860967;29;20079;-90
2021/06/25 02:09:03;;;;;;;2.13;1.70;;;;;;;21.39;42.78;101913.88;4860807;29;20057;-92
2021/06/25 02:11:28;;;;;;;2.88;1.77;;;;;;;21.39;42.89;101907.78;4860976;29;20032;-92
2021/06/25 02:13:54;;;;;;;2.28;1.60;;;;;;;21.39;42.87;101913.00;4861417;29;20056;-91
2021/06/25 02:16:20;;;;;;;2.72;1.30;;;;;;;21.41;42.56;101909.53;4860622;29;20053;-90
2021/06/25 02:18:46;;;;;;;3.58;1.17;;;;;;;21.42;42.71;101902.53;4860796;29;20075;-89
2021/06/25 02:21:11;;;;;;;2.30;1.60;;;;;;;21.41;42.72;101908.63;4860242;29;20548;-91
2021/06/25 02:23:37;;;;;;;3.13;1.40;;;;;;;21.40;43.07;101891.16;4860246;29;20033;-91
2021/06/25 02:26:03;;;;;;;3.30;1.48;;;;;;;21.41;43.02;101895.53;4860576;29;20061;-89
2021/06/25 02:28:29;;;;;;;3.13;1.58;;;;;;;21.41;42.84;101895.53;4861971;29;20100;-90
2021/06/25 02:30:55;;;;;;;1.95;1.10;;;;;;;21.41;42.94;101893.81;4848628;29;20037;-91
2021/06/25 02:33:21;;;;;;;2.50;1.40;;;;;;;21.42;42.74;101892.06;4852955;29;20037;-92
2021/06/25 02:35:46;;;;;;;2.33;1.58;;;;;;;21.41;42.84;101891.19;4868745;29;20094;-90
2021/06/25 02:38:12;;;;;;;2.75;1.75;;;;;;;21.40;42.63;101884.16;4849741;29;20048;-90
2021/06/25 02:40:37;;;;;;;2.25;1.98;;;;;;;21.39;43.08;101887.69;4848880;29;20034;-93
2021/06/25 02:43:03;;;;;;;2.08;1.60;;;;;;;21.40;42.86;101880.69;4864644;29;20109;-93
2021/06/25 02:45:28;;;;;;;2.33;1.40;;;;;;;21.40;42.83;101876.31;4864331;29;20036;-90
2021/06/25 02:47:53;;;;;;;3.45;1.70;;;;;;;21.38;43.10;101870.22;4833528;29;20045;-92
2021/06/25 02:50:21;;;;;;;2.05;1.25;;;;;;;21.39;42.93;101877.22;4865215;29;20057;-91
2021/06/25 02:52:47;;;;;;;2.28;1.20;;;;;;;21.40;43.13;101868.47;4864950;29;20036;-93
2021/06/25 02:55:13;;;;;;;2.13;1.27;;;;;;;21.40;43.04;101864.97;4851765;29;20038;-90
2021/06/25 02:57:38;;;;;;;1.70;1.40;;;;;;;21.40;43.14;101868.47;4878276;29;20053;-90
2021/06/25 03:00:08;;;;;;;3.92;2.00;;;;;;;21.39;43.21;101866.72;4875022;29;20037;-90
2021/06/25 03:02:33;;;;;;;2.35;1.40;;;;;;;21.39;43.54;101858.88;4872862;29;20033;-92
2021/06/25 03:04:59;;;;;;;1.98;1.10;;;;;;;21.40;43.09;101863.22;4849830;29;20338;-93
2021/06/25 03:07:24;;;;;;;1.85;1.25;;;;;;;21.39;43.13;101864.13;4864879;29;20374;-92
2021/06/25 03:09:49;;;;;;;2.00;1.30;;;;;;;21.41;42.92;101867.63;4851379;29;20130;-93
2021/06/25 03:12:15;;;;;;;3.05;1.98;;;;;;;21.42;43.20;101863.25;4874117;29;20025;-91
2021/06/25 03:14:41;;;;;;;2.42;1.77;;;;;;;21.40;43.00;101855.38;4872345;29;20040;-91
2021/06/25 03:17:07;;;;;;;2.22;1.77;;;;;;;21.40;43.04;101857.13;4865023;29;20022;-92
2021/06/25 03:19:32;;;;;;;4.28;1.70;;;;;;;21.39;43.39;101853.66;4863714;29;20034;-94
2021/06/25 03:21:57;;;;;;;2.03;1.63;;;;;;;21.40;43.10;101857.13;4864694;29;20501;-92
2021/06/25 03:24:23;;;;;;;1.52;1.10;;;;;;;21.41;43.16;101849.28;4848107;29;20485;-93
2021/06/25 03:26:48;;;;;;;1.70;1.10;;;;;;;21.40;42.97;101839.66;4863516;29;20146;-90
2021/06/25 03:29:14;;;;;;;2.42;1.10;;;;;;;21.42;43.11;101837.06;4848169;29;20038;-92
2021/06/25 03:31:39;;;;;;;1.88;1.58;;;;;;;21.41;43.13;101838.81;4847960;29;20034;-91
2021/06/25 03:34:05;;;;;;;2.42;1.20;;;;;;;21.40;43.28;101831.81;4862899;29;20036;-93
2021/06/25 03:36:30;;;;;;;3.38;1.30;;;;;;;21.39;43.21;101831.84;4847383;29;20060;-90
2021/06/25 03:38:55;;;;;;;1.35;0.93;;;;;;;21.40;43.14;101834.41;4848583;29;20038;-91
2021/06/25 03:41:21;;;;;;;1.73;1.35;;;;;;;21.40;43.31;101837.03;4863180;29;20481;-90
2021/06/25 03:43:46;;;;;;;2.78;1.10;;;;;;;21.39;43.10;101837.94;4861812;29;20062;-93
2021/06/25 03:46:12;;;;;;;1.75;1.17;;;;;;;21.40;43.21;101839.66;4849738;29;20071;-93
2021/06/25 03:48:37;;;;;;;1.60;1.40;;;;;;;21.40;43.08;101833.56;4870333;29;20097;-91
2021/06/25 03:51:03;;;;;;;2.38;1.30;;;;;;;21.39;43.40;101834.47;4882719;29;20116;-93
2021/06/25 03:53:29;;;;;;;2.05;1.48;;;;;;;21.36;43.39;101830.97;4871661;29;20044;-92
2021/06/25 03:56:12;;;;;;;2.03;1.67;;;;;;;21.37;43.30;101824.00;4849438;29;20511;-92
2021/06/25 03:58:42;;;;;;;;;;;;;;;21.37;43.28;101827.47;4863877;29;20540;-92
2021/06/25 04:01:07;;;;;;;1.85;0.98;;;;;;;21.37;43.22;101822.22;4864191;29;19920;-92
2021/06/25 04:03:33;;;;;;;2.15;1.20;;;;;;;21.40;42.80;101821.31;4850318;29;20033;-92
2021/06/25 04:05:59;;;;;;;2.65;1.40;;;;;;;21.40;43.23;101826.56;4864293;29;20106;-92
2021/06/25 04:08:26;;;;;;;1.85;1.30;;;;;;;21.40;43.39;101823.09;4863984;29;20034;-91
2021/06/25 04:10:52;;;;;;;3.33;1.75;;;;;;;21.39;43.47;101822.22;4862171;29;20034;-93
2021/06/25 04:13:18;;;;;;;1.88;1.40;;;;;;;21.38;43.43;101815.22;4863456;29;20370;-93
2021/06/25 04:15:43;;;;;;;1.85;1.67;;;;;;;21.39;43.08;101813.50;4862491;29;20081;-91
2021/06/25 04:18:09;;;;;;;4.00;2.45;;;;;;;21.36;43.34;101812.66;4847229;29;20041;-93
2021/06/25 04:20:34;;;;;;;3.30;2.30;;;;;;;21.36;43.23;101803.91;4831732;29;20116;-91
2021/06/25 04:22:59;;;;;;;2.60;1.65;;;;;;;21.37;43.14;101808.28;4862280;29;20445;-92
2021/06/25 04:25:25;;;;;;;2.53;1.50;;;;;;;21.36;43.21;101804.81;4863743;29;20135;-92
2021/06/25 04:27:51;;;;;;;3.95;1.70;;;;;;;21.37;43.17;101803.91;4847401;29;20033;-93
2021/06/25 04:30:16;;;;;;;2.58;1.52;;;;;;;21.37;43.25;101803.03;4846925;29;20033;-91
2021/06/25 04:32:43;;;;;;;2.60;1.50;;;;;;;21.37;43.36;101806.53;4863134;29;20030;-91
2021/06/25 04:35:09;;;;;;;2.45;1.20;;;;;;;21.37;43.31;101803.91;4861419;29;20064;-92
2021/06/25 04:37:34;;;;;;;1.85;1.10;;;;;;;21.39;43.35;101805.66;4861513;29;20041;-92
2021/06/25 04:40:00;;;;;;;2.05;1.05;;;;;;;21.37;43.23;101809.13;4861874;29;20049;-92
2021/06/25 04:42:26;;;;;;;1.38;0.85;;;;;;;21.39;43.20;101800.41;4862760;29;20037;-93
2021/06/25 04:44:51;;;;;;;1.40;0.90;;;;;;;21.41;43.37;101809.13;4861779;29;20414;-92
2021/06/25 04:47:17;;;;;;;2.53;1.02;;;;;;;21.40;43.15;101799.53;4861393;29;20086;-91
2021/06/25 04:49:43;;;;;;;1.63;1.17;;;;;;;21.40;43.40;101792.53;4846257;29;20409;-91
2021/06/25 04:52:08;;;;;;;2.03;1.13;;;;;;;21.40;43.37;101786.44;4861331;29;20034;-92
2021/06/25 04:54:34;;;;;;;1.50;1.00;;;;;;;21.40;43.42;101787.28;4861079;29;20040;-90
2021/06/25 04:57:00;;;;;;;1.65;0.85;;;;;;;21.40;43.31;101786.44;4862521;29;20033;-91
2021/06/25 04:59:26;;;;;;;1.70;1.20;;;;;;;21.41;43.41;101791.69;4845768;29;20030;-91
2021/06/25 05:01:52;;;;;;;1.90;1.00;;;;;;;21.41;43.63;101785.56;4831584;29;20409;-91
2021/06/25 05:04:17;;;;;;;1.23;0.98;;;;;;;21.39;43.34;101785.56;4862346;29;20042;-92
2021/06/25 05:06:43;;;;;;;1.33;0.95;;;;;;;21.41;43.44;101770.75;4862347;29;20053;-93
2021/06/25 05:09:08;;;;;;;3.05;0.95;;;;;;;21.42;43.41;101779.47;4861618;29;20402;-92
2021/06/25 05:11:33;;;;;;;2.35;0.90;;;;;;;21.41;43.96;101773.34;4861704;29;20039;-91
2021/06/25 05:13:59;;;;;;;2.58;1.30;;;;;;;21.45;43.83;101782.91;4861764;29;20029;-91
2021/06/25 05:16:24;;;;;;;2.20;1.08;;;;;;;21.45;43.76;101775.06;4861348;29;20044;-92
2021/06/25 05:18:50;;;;;;;4.50;1.27;;;;;;;21.45;43.83;101772.44;4861403;29;20029;-90
2021/06/25 05:21:15;;;;;;;3.00;1.55;;;;;;;21.44;44.07;101773.31;4862406;29;20036;-92
2021/06/25 05:23:40;;;;;;;2.85;2.28;;;;;;;21.40;44.33;101768.09;4862600;29;21160;-92
2021/06/25 05:26:06;;;;;;;4.90;2.17;;;;;;;21.39;44.37;101775.09;4846095;29;20491;-92
2021/06/25 05:28:31;;;;;;;4.68;1.80;;;;;;;21.33;44.62;101773.38;4867375;29;20040;-91
2021/06/25 05:30:57;;;;;;;5.72;3.40;;;;;;;21.25;44.70;101779.59;4868384;29;20117;-92
2021/06/25 05:33:23;;;;;;;7.68;6.15;;;;;;;21.17;44.46;101769.22;4855892;29;20138;-91
2021/06/25 05:35:48;;;;;;;8.07;4.70;;;;;;;21.15;44.33;101771.84;4868800;29;20080;-92
2021/06/25 05:38:14;;;;;;;7.10;5.82;;;;;;;21.17;44.23;101771.84;4868894;29;20101;-91
2021/06/25 05:40:41;;;;;;;8.68;6.85;;;;;;;21.12;43.98;101764.03;4867435;29;20048;-91
2021/06/25 05:43:07;;;;;;;9.70;7.30;;;;;;;21.09;43.93;101764.03;4869839;29;20030;-91
2021/06/25 05:45:34;;;;;;;16.25;8.82;;;;;;;21.05;43.95;101764.09;4863737;29;20112;-91
2021/06/25 05:48:00;;;;;;;11.73;8.63;;;;;;;21.01;44.11;101758.00;4862436;29;20485;-92
2021/06/25 05:50:34;;;;;;;10.52;8.27;;;;;;;21.05;44.18;101756.22;4862855;29;20109;-91
2021/06/25 05:52:59;;;;;;;10.27;7.70;;;;;;;21.02;44.08;101751.91;4862120;29;20154;-90
2021/06/25 05:55:25;;;;;;;12.40;7.88;;;;;;;21.08;44.16;101754.47;4831401;29;20074;-91
2021/06/25 05:57:53;;;;;;;10.25;6.82;;;;;;;21.08;44.23;101751.84;4861011;29;20025;-92
2021/06/25 06:00:19;;;;;;;10.75;7.53;;;;;;;21.06;44.35;101751.00;4861087;29;20040;-91
2021/06/25 06:02:45;;;;;;;10.23;7.55;;;;;;;21.05;44.22;101751.84;4846122;29;20030;-91
2021/06/25 06:05:11;;;;;;;13.32;8.80;;;;;;;21.07;44.36;101757.94;4860953;29;20038;-91
2021/06/25 06:07:37;;;;;;;10.10;8.23;;;;;;;21.02;44.50;101748.41;4863987;29;20120;-92
2021/06/25 06:10:04;;;;;;;12.63;8.80;;;;;;;20.99;44.56;101756.28;4867110;29;20041;-90
2021/06/25 06:12:30;;;;;;;10.15;8.90;;;;;;;21.01;44.54;101760.63;4858465;29;20068;-90
2021/06/25 06:14:55;;;;;;;11.65;8.85;;;;;;;21.02;44.70;101764.97;4882619;29;20030;-92
2021/06/25 06:17:23;;;;;;;11.40;7.78;;;;;;;21.03;44.63;101765.84;4873819;29;20136;-92
2021/06/25 06:19:55;;;;;;;11.77;7.40;;;;;;;21.06;44.61;101761.47;4866790;29;20500;-92
2021/06/25 06:33:27;;;;;;;8.88;6.15;;;;;;;21.20;44.65;101771.78;4865629;29;20052;-91
2021/06/25 06:35:52;;;;;;;9.00;5.22;;;;;;;21.23;44.62;101773.50;4863635;29;20121;-91
2021/06/25 06:38:21;;;;;;;7.32;5.20;;;;;;;21.23;44.48;101771.78;4864199;29;20021;-92
2021/06/25 06:40:46;;;;;;;7.00;4.97;;;;;;;21.24;44.45;101770.88;4864202;29;20428;-92
2021/06/25 06:43:12;;;;;;;9.85;5.90;;;;;;;21.25;44.70;101774.34;4863571;29;20116;-91
2021/06/25 06:45:38;;;;;;;8.07;4.90;;;;;;;21.26;44.68;101774.34;4864300;29;20484;-91
2021/06/25 06:48:07;;;;;;;8.93;5.35;;;;;;;21.25;44.53;101770.00;4848303;29;20574;-91
2021/06/25 06:50:35;;;;;;;8.02;5.18;;;;;;;21.30;44.42;101776.06;4864050;29;20034;-92
2021/06/25 06:53:00;;;;;;;7.38;5.47;;;;;;;21.30;44.62;101775.19;4863424;29;20549;-91
2021/06/25 06:55:26;;;;;;;7.45;5.00;;;;;;;21.28;44.52;101776.97;4863239;29;20125;-91
2021/06/25 06:57:52;;;;;;;7.05;5.22;;;;;;;21.29;44.91;101762.97;4863973;29;20478;-92
2021/06/25 07:00:18;;;;;;;8.10;4.78;;;;;;;21.32;44.68;101770.81;4863583;29;20029;-90
2021/06/25 07:02:44;;;;;;;10.07;6.10;;;;;;;21.30;44.89;101759.50;4849078;29;20034;-91
2021/06/25 07:05:13;;;;;;;10.00;7.22;;;;;;;21.36;44.78;101765.53;4864225;29;20041;-93
2021/06/25 07:07:38;;;;;;;9.40;6.40;;;;;;;21.36;44.82;101764.63;4864856;29;20029;-90
2021/06/25 07:10:06;;;;;;;8.07;6.78;;;;;;;21.37;44.93;101759.38;4864205;29;20112;-92
2021/06/25 07:12:32;;;;;;;11.90;6.90;;;;;;;21.40;44.77;101763.72;4864648;29;20501;-92
2021/06/25 07:14:57;;;;;;;8.50;5.97;;;;;;;21.40;44.89;101753.25;4863731;29;20065;-91
2021/06/25 07:17:23;;;;;;;8.48;5.30;;;;;;;21.42;45.01;101755.88;4833188;29;20026;-90
2021/06/25 07:19:49;;;;;;;8.68;5.80;;;;;;;21.46;44.96;101760.22;4848215;29;20121;-91
2021/06/25 07:22:15;;;;;;;7.90;5.47;;;;;;;21.48;44.92;101756.69;4864040;29;20038;-93
2021/06/25 07:24:41;;;;;;;8.73;5.70;;;;;;;21.50;44.96;101760.16;4864506;29;20036;-92
2021/06/25 07:27:07;;;;;;;9.00;6.10;;;;;;;21.51;45.00;101755.78;4852493;29;20477;-93
2021/06/25 07:29:32;;;;;;;8.63;6.28;;;;;;;21.55;44.83;101757.47;4882798;29;20013;-92
2021/06/25 07:32:00;;;;;;;13.13;6.50;;;;;;;21.60;44.94;101758.31;4862437;29;20033;-92
2021/06/25 07:34:26;;;;;;;8.68;6.00;;;;;;;21.61;45.15;101749.56;4865036;29;20038;-92
2021/06/25 07:36:51;;;;;;;5.70;4.78;;;;;;;21.66;45.22;101760.84;4863706;29;20042;-92
2021/06/25 07:39:17;;;;;;;8.25;4.60;;;;;;;21.69;45.54;101765.19;4863143;29;20045;-90
2021/06/25 07:41:42;;;;;;;8.07;4.38;;;;;;;21.67;44.82;101756.50;4863333;29;20469;-92
2021/06/25 07:44:08;;;;;;;6.30;4.72;;;;;;;21.65;45.17;101758.25;4862551;29;20034;-92
2021/06/25 07:46:33;;;;;;;5.47;4.20;;;;;;;21.67;45.22;101764.34;4863346;29;20025;-93
2021/06/25 07:48:59;;;;;;;8.07;5.22;;;;;;;21.67;45.48;101765.22;4862919;29;20034;-93
2021/06/25 07:51:24;;;;;;;7.13;4.78;;;;;;;21.64;45.43;101762.59;4846893;29;20037;-91
2021/06/25 07:53:50;;;;;;;8.25;4.20;;;;;;;21.64;45.19;101766.97;4862228;29;20039;-92
2021/06/25 07:56:15;;;;;;;8.57;4.97;;;;;;;21.64;45.54;101761.75;4862488;29;20032;-92
2021/06/25 07:58:43;;;;;;;7.32;4.53;;;;;;;21.64;45.66;101762.59;4862623;29;20066;-91
2021/06/25 08:01:09;;;;;;;6.30;4.40;;;;;;;21.60;45.71;101754.81;4863535;29;20030;-92
2021/06/25 08:03:37;;;;;;;8.73;5.07;;;;;;;21.60;45.67;101753.06;4863028;29;20036;-91
2021/06/25 08:06:03;;;;;;;7.40;4.57;;;;;;;21.63;45.62;101752.16;4862238;29;20041;-90
2021/06/25 08:08:28;;;;;;;9.27;4.88;;;;;;;21.63;45.78;101755.66;4863013;29;20093;-92
2021/06/25 08:10:54;;;;;;;7.07;4.22;;;;;;;21.66;45.82;101757.34;4862308;29;20029;-90
2021/06/25 08:13:19;;;;;;;7.93;5.00;;;;;;;21.66;45.87;101754.75;4846653;29;20519;-92
2021/06/25 08:15:49;;;;;;;5.80;4.28;;;;;;;21.67;45.89;101759.09;4847014;29;20064;-91
2021/06/25 08:18:20;;;;;;;5.90;4.60;;;;;;;21.68;45.90;101760.81;4847047;29;20535;-92
2021/06/25 08:20:46;;;;;;;12.38;6.80;;;;;;;21.59;46.39;101753.94;4861197;29;20401;-91
2021/06/25 08:23:12;;;;;;;13.95;7.47;;;;;;;21.57;46.64;101758.34;4861169;29;20045;-92
2021/06/25 08:25:37;;;;;;;11.05;7.55;;;;;;;21.50;47.23;101757.53;4861214;29;20040;-92
2021/06/25 08:28:05;;;;;;;12.57;8.32;;;;;;;21.51;47.18;101755.78;4883233;24;20064;-89
2021/06/25 08:30:31;;;;;;;13.30;8.48;;;;;;;;;;4846402;29;20129;-92
2021/06/25 08:32:57;;;;;;;13.05;7.90;;;;;;;21.51;47.67;101759.28;4830556;29;20034;-91
2021/06/25 08:35:25;;;;;;;14.57;8.23;;;;;;;21.55;47.74;101767.97;4829546;29;20041;-92
2021/06/25 08:37:53;;;;;;;15.65;8.90;;;;;;;21.50;47.89;101762.78;4844034;29;20026;-93
2021/06/25 08:40:20;;;;;;;16.50;9.90;;;;;;;21.48;48.26;101751.44;4843676;29;20034;-93
2021/06/25 08:42:54;;;;;;;17.58;9.73;;;;;;;21.46;48.40;101752.34;4842787;29;20034;-92
2021/06/25 08:45:19;;;;;;;15.68;10.30;;;;;;;21.47;48.32;101757.59;4843452;29;20072;-91
2021/06/25 08:47:50;;;;;;;17.10;9.65;;;;;;;21.43;48.83;101750.66;4828188;29;20116;-92
2021/06/25 08:50:25;;;;;;;21.35;12.02;;;;;;;21.38;49.00;101752.41;4845196;29;20121;-93
2021/06/25 08:52:53;;;;;;;19.73;12.52;;;;;;;21.37;49.15;101751.53;4846074;29;20390;-93
2021/06/25 08:55:20;;;;;;;18.83;11.15;;;;;;;21.38;49.14;101747.16;4843088;29;20034;-93
2021/06/25 08:57:46;;;;;;;16.15;10.90;;;;;;;21.43;49.28;101750.66;4842678;29;20105;-92
2021/06/25 09:00:14;;;;;;;15.85;11.05;;;;;;;21.45;49.12;101746.25;4844503;29;20034;-92
2021/06/25 09:02:40;;;;;;;15.93;11.40;;;;;;;21.42;49.26;101743.66;4846386;29;20045;-91
2021/06/25 09:05:27;;;;;;;20.30;12.02;;;;;;;21.37;49.29;101745.44;4843263;29;20561;-93
2021/06/25 09:07:58;;;;;;;18.70;11.88;;;;;;;21.34;49.36;101729.78;4843815;29;20030;-92
2021/06/25 09:10:47;;;;;;;14.68;11.45;;;;;;;21.38;49.18;101726.22;4841786;29;20034;-92
2021/06/25 09:13:14;;;;;;;15.45;11.00;;;;;;;21.43;49.36;101726.22;4842459;29;20041;-93
2021/06/25 09:15:45;;;;;;;15.45;11.07;;;;;;;21.41;49.42;101731.47;4842388;29;20030;-92
2021/06/25 09:18:26;;;;;;;18.40;12.25;;;;;;;21.35;49.53;101726.25;4827306;29;20042;-92
2021/06/25 09:21:07;;;;;;;;;;;;;;;;;;;;;
2021/06/25 09:23:41;;;;;;;14.90;11.32;;;;;;;21.39;49.43;101733.19;4827833;29;20045;-91
2021/06/25 09:26:13;;;;;;;14.75;11.18;;;;;;;21.44;49.45;101730.56;4824848;29;20038;-93
2021/06/25 09:28:46;;;;;;;16.30;12.25;;;;;;;21.43;49.59;101729.69;4824611;29;20038;-93
2021/06/25 09:31:14;;;;;;;16.00;11.60;;;;;;;21.41;49.88;101730.56;4824189;29;20038;-92
2021/06/25 09:33:53;;;;;;;16.40;11.10;;;;;;;21.44;49.41;101730.56;4824570;29;20042;-93
2021/06/25 09:36:26;;;;;;;17.05;12.07;;;;;;;21.46;49.46;101734.88;4825173;29;20105;-91
2021/06/25 09:39:19;;;;;;;17.52;13.88;;;;;;;21.39;50.52;101734.97;4828372;29;20041;-93
2021/06/25 09:41:46;;;;;;;21.77;13.60;;;;;;;21.41;50.26;101736.69;4833974;29;20034;-95
2021/06/25 09:44:26;;;;;;;17.55;13.98;;;;;;;21.40;50.64;101732.28;4835047;29;20031;-92
2021/06/25 09:46:53;;;;;;;17.90;12.45;;;;;;;21.44;50.76;101734.03;4826489;24;20076;-92
2021/06/25 09:49:27;;;;;;;15.05;11.98;;;;;;;21.46;50.79;101732.25;4834457;29;20443;-92
2021/06/25 09:51:57;;;;;;;16.50;12.80;;;;;;;21.47;51.11;101739.25;4854334;29;20053;-93
2021/06/25 09:54:24;;;;;;;19.90;14.82;;;;;;;21.43;51.80;101745.41;4863577;29;20032;-92
2021/06/25 09:57:14;;;;;;;21.33;15.77;;;;;;;21.37;52.25;101745.44;4858212;29;20383;-94
2021/06/25 09:59:59;;;;;;;20.17;13.98;;;;;;;21.39;52.11;101741.06;4852847;29;20117;-95
2021/06/25 10:02:26;;;;;;;18.08;14.35;;;;;;;21.41;52.10;101741.94;4852592;29;20101;-92
2021/06/25 10:08:14;;;;;;;21.33;13.77;;;;;;;21.35;53.03;101752.44;4849288;29;20076;-92
2021/06/25 10:10:40;;;;;;;19.48;13.27;;;;;;;21.33;53.29;101744.59;4832253;29;20476;-91
2021/06/25 10:15:53;;;;;;;16.10;12.53;;;;;;;21.30;53.55;101749.88;4881240;24;20090;-92
2021/06/25 10:18:19;;;;;;;14.98;11.20;;;;;;;21.29;53.67;101748.13;4855123;29;20101;-94
2021/06/25 10:20:55;;;;;;;17.40;11.60;;;;;;;21.33;53.63;101752.44;4865835;29;20057;-95
2021/06/25 10:23:26;;;;;;;17.52;11.88;;;;;;;21.30;53.51;101739.41;4846805;29;20481;-94
2021/06/25 10:25:51;;;;;;;18.05;11.57;;;;;;;21.29;53.71;101736.78;4849469;29;20029;-94
2021/06/25 10:28:18;;;;;;;15.40;10.70;;;;;;;21.30;53.63;101743.78;4847499;29;20061;-93
2021/06/25 10:30:46;;;;;;;18.05;11.32;;;;;;;21.27;53.60;101744.66;4847053;29;20165;-94
2021/06/25 10:33:13;;;;;;;16.27;10.75;;;;;;;21.27;54.13;101738.56;4845876;29;20040;-93
2021/06/25 10:35:41;;;;;;;15.30;10.35;;;;;;;21.28;54.14;101741.16;4830522;29;20141;-94
2021/06/25 10:38:07;;;;;;;14.55;9.75;;;;;;;21.34;53.97;101742.88;4845461;29;20040;-93
2021/06/25 10:40:33;;;;;;;17.77;9.80;;;;;;;21.32;53.87;101737.63;4844958;29;20034;-92
2021/06/25 10:43:01;;;;;;;14.35;9.65;;;;;;;21.32;53.63;101744.63;4845336;29;20032;-96
2021/06/25 10:45:41;;;;;;;14.68;10.80;;;;;;;21.31;53.83;101753.34;4845216;29;20041;-93
2021/06/25 10:51:47;;;;;;;14.02;9.13;;;;;;;21.30;54.04;101754.25;4862848;29;20048;-94
2021/06/25 10:54:18;;;;;;;15.32;9.50;;;;;;;21.31;54.06;101740.25;4849803;29;20105;-94
2021/06/25 10:57:05;;;;;;;15.70;8.75;;;;;;;21.26;54.01;101750.78;4848556;29;20675;-93
2021/06/25 10:59:41;;;;;;;13.80;8.07;;;;;;;21.27;54.13;101749.03;4847838;29;20033;-91
2021/06/25 11:02:07;;;;;;;14.82;7.72;;;;;;;21.29;54.13;101747.25;4849353;29;20064;-93
2021/06/25 11:04:43;;;;;;;11.90;6.82;;;;;;;21.28;53.96;101751.63;4848333;29;20029;-93
2021/06/25 11:07:16;;;;;;;13.68;6.45;;;;;;;21.26;54.01;101756.03;4848466;29;20033;-95
2021/06/25 11:09:51;;;;;;;11.57;6.65;;;;;;;21.22;54.04;101753.47;4848045;29;20389;-94
2021/06/25 11:12:32;;;;;;;13.38;6.60;;;;;;;21.26;53.89;101752.53;4847891;29;20033;-92
2021/06/25 11:15:04;;;;;;;10.93;6.20;;;;;;;21.37;53.57;101750.69;4847777;29;20442;-91
2021/06/25 11:17:58;;;;;;;13.98;6.50;;;;;;;21.43;53.35;101748.03;4848534;29;20101;-93
2021/06/25 11:20:28;;;;;;;11.93;6.15;;;;;;;21.48;53.17;101747.97;4832564;29;20089;-91
2021/06/25 11:23:12;;;;;;;11.73;5.70;;;;;;;21.50;53.28;101752.31;4850627;29;20061;-92
2021/06/25 11:25:51;;;;;;;12.63;5.50;;;;;;;21.53;53.12;101754.88;4848765;29;20540;-95
2021/06/25 11:28:30;;;;;;;16.58;5.93;;;;;;;21.55;52.88;101758.34;4848318;29;20128;-93
2021/06/25 11:30:56;;;;;;;8.48;5.00;;;;;;;21.56;52.65;101751.38;4850773;29;20219;-92
2021/06/25 11:33:34;;;;;;;9.10;4.75;;;;;;;21.57;52.43;101759.19;4851537;29;20103;-92
2021/06/25 11:36:23;;;;;;;9.25;5.18;;;;;;;21.56;52.19;101762.72;4850466;29;20568;-92
2021/06/25 11:38:51;;;;;;;11.50;5.82;;;;;;;21.59;52.30;101761.81;4822498;29;20089;-93
2021/06/25 11:41:17;;;;;;;9.25;5.15;;;;;;;21.60;52.26;101760.94;4848068;29;20061;-93
2021/06/25 11:43:42;;;;;;;9.75;4.47;;;;;;;21.60;52.24;101762.66;4847658;29;20041;-91
2021/06/25 11:46:08;;;;;;;7.90;5.13;;;;;;;21.59;52.55;101761.81;4846972;29;20025;-92
2021/06/25 11:51:56;;;;;;;10.50;5.60;;;;;;;21.62;51.88;101755.66;4863974;29;20037;-93